sensor_id;sensor_type;location;lat;lon;timestamp;P1;durP1;ratioP1;P2;durP2;ratioP2
5297;SDS011;14738;42.668;23.250;2023-11-21T00:00:08;14.47;;;8.57;;
5297;SDS011;14738;42.668;23.250;2023-11-21T00:02:37;5.87;;;5.30;;
5297;SDS011;14738;42.668;23.250;2023-11-21T00:05:05;5.40;;;4.90;;
5297;SDS011;14738;42.668;23.250;2023-11-21T00:07:33;8.80;;;6.37;;
5297;SDS011;14738;42.668;23.250;2023-11-21T00:09:58;7.27;;;6.53;;
5297;SDS011;14738;42.668;23.250;2023-11-21T00:12:24;8.47;;;6.50;;
5297;SDS011;14738;42.668;23.250;2023-11-21T00:14:49;7.87;;;6.90;;
5297;SDS011;14738;42.668;23.250;2023-11-21T00:17:15;9.07;;;7.20;;
5297;SDS011;14738;42.668;23.250;2023-11-21T00:19:40;13.43;;;7.80;;
5297;SDS011;14738;42.668;23.250;2023-11-21T00:22:07;8.83;;;7.03;;
5297;SDS011;14738;42.668;23.250;2023-11-21T00:24:34;8.90;;;8.00;;
5297;SDS011;14738;42.668;23.250;2023-11-21T00:26:59;9.00;;;6.63;;
5297;SDS011;14738;42.668;23.250;2023-11-21T00:29:25;10.17;;;7.20;;
5297;SDS011;14738;42.668;23.250;2023-11-21T00:31:51;16.00;;;8.93;;
5297;SDS011;14738;42.668;23.250;2023-11-21T00:34:17;7.23;;;6.53;;
5297;SDS011;14738;42.668;23.250;2023-11-21T00:36:42;9.83;;;7.00;;
5297;SDS011;14738;42.668;23.250;2023-11-21T00:39:08;9.47;;;6.90;;
5297;SDS011;14738;42.668;23.250;2023-11-21T00:41:33;8.40;;;7.40;;
5297;SDS011;14738;42.668;23.250;2023-11-21T00:43:59;12.20;;;7.33;;
5297;SDS011;14738;42.668;23.250;2023-11-21T00:46:25;12.27;;;8.50;;
5297;SDS011;14738;42.668;23.250;2023-11-21T00:48:53;9.30;;;7.50;;
5297;SDS011;14738;42.668;23.250;2023-11-21T00:51:19;9.50;;;8.43;;
5297;SDS011;14738;42.668;23.250;2023-11-21T00:53:45;8.40;;;7.50;;
5297;SDS011;14738;42.668;23.250;2023-11-21T00:56:12;11.93;;;7.27;;
5297;SDS011;14738;42.668;23.250;2023-11-21T00:58:38;9.50;;;7.17;;
5297;SDS011;14738;42.668;23.250;2023-11-21T01:01:03;7.93;;;7.13;;
5297;SDS011;14738;42.668;23.250;2023-11-21T01:03:29;10.60;;;8.10;;
5297;SDS011;14738;42.668;23.250;2023-11-21T01:05:54;10.00;;;6.70;;
5297;SDS011;14738;42.668;23.250;2023-11-21T01:08:20;10.47;;;7.00;;
5297;SDS011;14738;42.668;23.250;2023-11-21T01:10:46;9.50;;;6.83;;
5297;SDS011;14738;42.668;23.250;2023-11-21T01:13:11;9.30;;;6.70;;
5297;SDS011;14738;42.668;23.250;2023-11-21T01:15:37;14.27;;;8.10;;
5297;SDS011;14738;42.668;23.250;2023-11-21T01:18:02;10.47;;;7.37;;
5297;SDS011;14738;42.668;23.250;2023-11-21T01:20:28;9.43;;;7.37;;
5297;SDS011;14738;42.668;23.250;2023-11-21T01:22:54;12.93;;;8.67;;
5297;SDS011;14738;42.668;23.250;2023-11-21T01:25:20;12.17;;;8.33;;
5297;SDS011;14738;42.668;23.250;2023-11-21T01:27:46;12.20;;;8.00;;
5297;SDS011;14738;42.668;23.250;2023-11-21T01:30:12;9.87;;;7.93;;
5297;SDS011;14738;42.668;23.250;2023-11-21T01:32:38;10.33;;;8.40;;
5297;SDS011;14738;42.668;23.250;2023-11-21T01:35:04;11.27;;;8.63;;
5297;SDS011;14738;42.668;23.250;2023-11-21T01:37:34;8.93;;;7.23;;
5297;SDS011;14738;42.668;23.250;2023-11-21T01:40:00;13.73;;;8.60;;
5297;SDS011;14738;42.668;23.250;2023-11-21T01:42:26;14.30;;;8.27;;
5297;SDS011;14738;42.668;23.250;2023-11-21T01:44:52;9.53;;;7.17;;
5297;SDS011;14738;42.668;23.250;2023-11-21T01:47:19;11.63;;;7.40;;
5297;SDS011;14738;42.668;23.250;2023-11-21T01:49:46;12.53;;;7.80;;
5297;SDS011;14738;42.668;23.250;2023-11-21T01:52:12;12.70;;;7.93;;
5297;SDS011;14738;42.668;23.250;2023-11-21T01:54:38;9.87;;;7.80;;
5297;SDS011;14738;42.668;23.250;2023-11-21T01:57:04;10.40;;;7.27;;
5297;SDS011;14738;42.668;23.250;2023-11-21T01:59:35;10.10;;;7.43;;
5297;SDS011;14738;42.668;23.250;2023-11-21T02:02:02;9.87;;;7.03;;
5297;SDS011;14738;42.668;23.250;2023-11-21T02:04:30;9.17;;;7.20;;
5297;SDS011;14738;42.668;23.250;2023-11-21T02:06:56;11.10;;;8.00;;
5297;SDS011;14738;42.668;23.250;2023-11-21T02:09:28;8.80;;;7.50;;
5297;SDS011;14738;42.668;23.250;2023-11-21T02:11:56;8.70;;;7.40;;
5297;SDS011;14738;42.668;23.250;2023-11-21T02:14:23;8.30;;;6.80;;
5297;SDS011;14738;42.668;23.250;2023-11-21T02:16:50;8.57;;;6.70;;
5297;SDS011;14738;42.668;23.250;2023-11-21T02:19:20;8.73;;;5.30;;
5297;SDS011;14738;42.668;23.250;2023-11-21T02:21:49;7.67;;;5.77;;
5297;SDS011;14738;42.668;23.250;2023-11-21T02:24:17;5.53;;;5.03;;
5297;SDS011;14738;42.668;23.250;2023-11-21T02:26:43;8.60;;;6.10;;
5297;SDS011;14738;42.668;23.250;2023-11-21T02:29:10;7.37;;;6.07;;
5297;SDS011;14738;42.668;23.250;2023-11-21T02:31:38;8.87;;;5.57;;
5297;SDS011;14738;42.668;23.250;2023-11-21T02:34:12;8.57;;;6.43;;
5297;SDS011;14738;42.668;23.250;2023-11-21T02:36:38;9.93;;;7.10;;
5297;SDS011;14738;42.668;23.250;2023-11-21T02:39:04;12.37;;;9.30;;
5297;SDS011;14738;42.668;23.250;2023-11-21T02:41:29;9.43;;;8.43;;
5297;SDS011;14738;42.668;23.250;2023-11-21T02:43:55;14.70;;;9.00;;
5297;SDS011;14738;42.668;23.250;2023-11-21T02:46:20;10.30;;;8.40;;
5297;SDS011;14738;42.668;23.250;2023-11-21T02:48:46;12.40;;;9.50;;
5297;SDS011;14738;42.668;23.250;2023-11-21T02:51:11;11.27;;;9.60;;
5297;SDS011;14738;42.668;23.250;2023-11-21T02:53:36;11.03;;;8.97;;
5297;SDS011;14738;42.668;23.250;2023-11-21T02:56:03;14.63;;;8.90;;
5297;SDS011;14738;42.668;23.250;2023-11-21T02:58:29;15.30;;;10.50;;
5297;SDS011;14738;42.668;23.250;2023-11-21T03:00:55;13.03;;;9.40;;
5297;SDS011;14738;42.668;23.250;2023-11-21T03:03:21;13.40;;;7.90;;
5297;SDS011;14738;42.668;23.250;2023-11-21T03:05:48;8.47;;;6.60;;
5297;SDS011;14738;42.668;23.250;2023-11-21T03:08:14;13.40;;;8.93;;
5297;SDS011;14738;42.668;23.250;2023-11-21T03:10:39;13.33;;;9.50;;
5297;SDS011;14738;42.668;23.250;2023-11-21T03:13:05;9.00;;;7.40;;
5297;SDS011;14738;42.668;23.250;2023-11-21T03:15:30;18.20;;;12.60;;
5297;SDS011;14738;42.668;23.250;2023-11-21T03:17:57;20.00;;;11.63;;
5297;SDS011;14738;42.668;23.250;2023-11-21T03:20:23;12.77;;;8.57;;
5297;SDS011;14738;42.668;23.250;2023-11-21T03:22:48;13.80;;;7.53;;
5297;SDS011;14738;42.668;23.250;2023-11-21T03:25:14;14.50;;;7.07;;
5297;SDS011;14738;42.668;23.250;2023-11-21T03:27:42;9.40;;;6.67;;
5297;SDS011;14738;42.668;23.250;2023-11-21T03:30:08;7.90;;;7.10;;
5297;SDS011;14738;42.668;23.250;2023-11-21T03:32:34;8.10;;;6.60;;
5297;SDS011;14738;42.668;23.250;2023-11-21T03:35:00;13.13;;;8.33;;
5297;SDS011;14738;42.668;23.250;2023-11-21T03:37:26;10.33;;;7.23;;
5297;SDS011;14738;42.668;23.250;2023-11-21T03:39:52;10.37;;;7.57;;
5297;SDS011;14738;42.668;23.250;2023-11-21T03:42:18;9.33;;;8.23;;
5297;SDS011;14738;42.668;23.250;2023-11-21T03:44:43;12.73;;;7.40;;
5297;SDS011;14738;42.668;23.250;2023-11-21T03:47:09;12.50;;;7.20;;
5297;SDS011;14738;42.668;23.250;2023-11-21T03:49:34;8.43;;;6.87;;
5297;SDS011;14738;42.668;23.250;2023-11-21T03:52:00;12.13;;;9.20;;
5297;SDS011;14738;42.668;23.250;2023-11-21T03:54:25;12.60;;;7.67;;
5297;SDS011;14738;42.668;23.250;2023-11-21T03:56:51;8.17;;;6.30;;
5297;SDS011;14738;42.668;23.250;2023-11-21T03:59:17;12.70;;;7.23;;
5297;SDS011;14738;42.668;23.250;2023-11-21T04:01:42;9.20;;;7.97;;
5297;SDS011;14738;42.668;23.250;2023-11-21T04:04:08;7.53;;;6.40;;
5297;SDS011;14738;42.668;23.250;2023-11-21T04:06:33;10.93;;;8.63;;
5297;SDS011;14738;42.668;23.250;2023-11-21T04:08:58;11.70;;;10.03;;
5297;SDS011;14738;42.668;23.250;2023-11-21T04:11:24;14.83;;;11.50;;
5297;SDS011;14738;42.668;23.250;2023-11-21T04:13:49;14.97;;;11.20;;
5297;SDS011;14738;42.668;23.250;2023-11-21T04:16:15;13.17;;;10.43;;
5297;SDS011;14738;42.668;23.250;2023-11-21T04:18:40;14.60;;;10.73;;
5297;SDS011;14738;42.668;23.250;2023-11-21T04:21:06;13.87;;;10.93;;
5297;SDS011;14738;42.668;23.250;2023-11-21T04:23:32;26.47;;;11.33;;
5297;SDS011;14738;42.668;23.250;2023-11-21T04:25:58;18.90;;;11.83;;
5297;SDS011;14738;42.668;23.250;2023-11-21T04:28:24;17.40;;;11.33;;
5297;SDS011;14738;42.668;23.250;2023-11-21T04:30:50;12.80;;;9.70;;
5297;SDS011;14738;42.668;23.250;2023-11-21T04:33:15;14.40;;;11.13;;
5297;SDS011;14738;42.668;23.250;2023-11-21T04:35:41;16.10;;;10.80;;
5297;SDS011;14738;42.668;23.250;2023-11-21T04:38:06;17.27;;;10.37;;
5297;SDS011;14738;42.668;23.250;2023-11-21T04:40:32;17.40;;;10.20;;
5297;SDS011;14738;42.668;23.250;2023-11-21T04:42:57;14.77;;;10.67;;
5297;SDS011;14738;42.668;23.250;2023-11-21T04:45:23;14.80;;;10.63;;
5297;SDS011;14738;42.668;23.250;2023-11-21T04:47:48;13.93;;;9.93;;
5297;SDS011;14738;42.668;23.250;2023-11-21T04:50:14;16.33;;;10.43;;
5297;SDS011;14738;42.668;23.250;2023-11-21T04:52:39;16.73;;;11.83;;
5297;SDS011;14738;42.668;23.250;2023-11-21T04:55:08;19.47;;;13.90;;
5297;SDS011;14738;42.668;23.250;2023-11-21T04:57:35;16.63;;;13.10;;
5297;SDS011;14738;42.668;23.250;2023-11-21T05:00:06;28.87;;;20.10;;
5297;SDS011;14738;42.668;23.250;2023-11-21T05:02:32;58.90;;;39.97;;
5297;SDS011;14738;42.668;23.250;2023-11-21T05:04:59;45.33;;;29.10;;
5297;SDS011;14738;42.668;23.250;2023-11-21T05:07:25;24.93;;;16.63;;
5297;SDS011;14738;42.668;23.250;2023-11-21T05:09:52;15.33;;;11.70;;
5297;SDS011;14738;42.668;23.250;2023-11-21T05:12:17;16.43;;;11.43;;
5297;SDS011;14738;42.668;23.250;2023-11-21T05:14:43;20.30;;;13.03;;
5297;SDS011;14738;42.668;23.250;2023-11-21T05:17:08;21.83;;;11.10;;
5297;SDS011;14738;42.668;23.250;2023-11-21T05:19:34;12.20;;;9.37;;
5297;SDS011;14738;42.668;23.250;2023-11-21T05:22:00;13.90;;;10.73;;
5297;SDS011;14738;42.668;23.250;2023-11-21T05:24:26;17.37;;;10.07;;
5297;SDS011;14738;42.668;23.250;2023-11-21T05:26:51;14.87;;;11.03;;
5297;SDS011;14738;42.668;23.250;2023-11-21T05:29:17;11.50;;;9.77;;
5297;SDS011;14738;42.668;23.250;2023-11-21T05:31:43;15.10;;;11.90;;
5297;SDS011;14738;42.668;23.250;2023-11-21T05:34:08;18.23;;;12.17;;
5297;SDS011;14738;42.668;23.250;2023-11-21T05:36:34;13.03;;;11.07;;
5297;SDS011;14738;42.668;23.250;2023-11-21T05:38:59;11.07;;;8.60;;
5297;SDS011;14738;42.668;23.250;2023-11-21T05:41:24;17.13;;;10.13;;
5297;SDS011;14738;42.668;23.250;2023-11-21T05:43:50;13.17;;;9.70;;
5297;SDS011;14738;42.668;23.250;2023-11-21T05:46:16;15.23;;;9.00;;
5297;SDS011;14738;42.668;23.250;2023-11-21T05:48:41;11.77;;;8.20;;
5297;SDS011;14738;42.668;23.250;2023-11-21T05:51:09;9.67;;;8.23;;
5297;SDS011;14738;42.668;23.250;2023-11-21T05:53:37;8.73;;;7.07;;
5297;SDS011;14738;42.668;23.250;2023-11-21T05:56:03;8.00;;;6.90;;
5297;SDS011;14738;42.668;23.250;2023-11-21T05:58:31;8.27;;;6.97;;
5297;SDS011;14738;42.668;23.250;2023-11-21T06:00:57;9.37;;;7.37;;
5297;SDS011;14738;42.668;23.250;2023-11-21T06:03:22;10.73;;;8.10;;
5297;SDS011;14738;42.668;23.250;2023-11-21T06:05:48;15.73;;;8.97;;
5297;SDS011;14738;42.668;23.250;2023-11-21T06:08:13;17.37;;;10.27;;
5297;SDS011;14738;42.668;23.250;2023-11-21T06:10:41;12.80;;;10.90;;
5297;SDS011;14738;42.668;23.250;2023-11-21T06:13:07;17.40;;;11.60;;
5297;SDS011;14738;42.668;23.250;2023-11-21T06:15:33;28.03;;;13.80;;
5297;SDS011;14738;42.668;23.250;2023-11-21T06:17:59;26.23;;;18.83;;
5297;SDS011;14738;42.668;23.250;2023-11-21T06:20:24;19.40;;;14.60;;
5297;SDS011;14738;42.668;23.250;2023-11-21T06:22:50;21.77;;;13.53;;
5297;SDS011;14738;42.668;23.250;2023-11-21T06:25:16;22.20;;;16.67;;
5297;SDS011;14738;42.668;23.250;2023-11-21T06:27:43;29.60;;;21.53;;
5297;SDS011;14738;42.668;23.250;2023-11-21T06:30:09;24.37;;;18.20;;
5297;SDS011;14738;42.668;23.250;2023-11-21T06:32:36;30.47;;;18.47;;
5297;SDS011;14738;42.668;23.250;2023-11-21T06:35:03;34.17;;;20.30;;
5297;SDS011;14738;42.668;23.250;2023-11-21T06:37:29;37.10;;;22.40;;
5297;SDS011;14738;42.668;23.250;2023-11-21T06:39:55;38.47;;;22.40;;
5297;SDS011;14738;42.668;23.250;2023-11-21T06:42:21;32.80;;;21.17;;
5297;SDS011;14738;42.668;23.250;2023-11-21T06:44:48;33.40;;;21.30;;
5297;SDS011;14738;42.668;23.250;2023-11-21T06:47:16;29.00;;;20.87;;
5297;SDS011;14738;42.668;23.250;2023-11-21T06:49:42;45.87;;;26.80;;
5297;SDS011;14738;42.668;23.250;2023-11-21T06:52:08;43.30;;;26.40;;
5297;SDS011;14738;42.668;23.250;2023-11-21T06:54:34;35.63;;;22.90;;
5297;SDS011;14738;42.668;23.250;2023-11-21T06:56:59;33.67;;;21.90;;
5297;SDS011;14738;42.668;23.250;2023-11-21T06:59:25;33.63;;;22.20;;
5297;SDS011;14738;42.668;23.250;2023-11-21T07:01:50;29.37;;;22.30;;
5297;SDS011;14738;42.668;23.250;2023-11-21T07:04:16;29.60;;;22.10;;
5297;SDS011;14738;42.668;23.250;2023-11-21T07:06:41;31.37;;;22.50;;
5297;SDS011;14738;42.668;23.250;2023-11-21T07:09:08;44.50;;;23.33;;
5297;SDS011;14738;42.668;23.250;2023-11-21T07:11:34;36.17;;;23.90;;
5297;SDS011;14738;42.668;23.250;2023-11-21T07:14:00;42.40;;;27.23;;
5297;SDS011;14738;42.668;23.250;2023-11-21T07:16:32;36.73;;;26.47;;
5297;SDS011;14738;42.668;23.250;2023-11-21T07:19:02;36.93;;;25.17;;
5297;SDS011;14738;42.668;23.250;2023-11-21T07:21:33;42.73;;;27.87;;
5297;SDS011;14738;42.668;23.250;2023-11-21T07:24:00;41.47;;;27.53;;
5297;SDS011;14738;42.668;23.250;2023-11-21T07:26:27;47.17;;;27.40;;
5297;SDS011;14738;42.668;23.250;2023-11-21T07:28:52;42.07;;;27.50;;
5297;SDS011;14738;42.668;23.250;2023-11-21T07:31:18;46.27;;;28.13;;
5297;SDS011;14738;42.668;23.250;2023-11-21T07:33:44;49.40;;;31.43;;
5297;SDS011;14738;42.668;23.250;2023-11-21T07:36:12;41.40;;;27.77;;
5297;SDS011;14738;42.668;23.250;2023-11-21T07:38:37;45.73;;;28.40;;
5297;SDS011;14738;42.668;23.250;2023-11-21T07:41:03;49.80;;;27.10;;
5297;SDS011;14738;42.668;23.250;2023-11-21T07:43:28;38.80;;;26.00;;
5297;SDS011;14738;42.668;23.250;2023-11-21T07:46:00;36.70;;;24.67;;
5297;SDS011;14738;42.668;23.250;2023-11-21T07:48:29;53.53;;;30.80;;
5297;SDS011;14738;42.668;23.250;2023-11-21T07:50:55;41.37;;;28.93;;
5297;SDS011;14738;42.668;23.250;2023-11-21T07:53:21;39.23;;;27.23;;
5297;SDS011;14738;42.668;23.250;2023-11-21T07:55:47;49.97;;;30.13;;
5297;SDS011;14738;42.668;23.250;2023-11-21T07:58:12;62.27;;;41.77;;
5297;SDS011;14738;42.668;23.250;2023-11-21T08:00:38;62.67;;;45.10;;
5297;SDS011;14738;42.668;23.250;2023-11-21T08:03:04;64.87;;;44.17;;
5297;SDS011;14738;42.668;23.250;2023-11-21T08:05:30;54.67;;;39.20;;
5297;SDS011;14738;42.668;23.250;2023-11-21T08:07:56;63.07;;;41.63;;
5297;SDS011;14738;42.668;23.250;2023-11-21T08:10:21;61.53;;;42.57;;
5297;SDS011;14738;42.668;23.250;2023-11-21T08:12:47;49.67;;;37.20;;
5297;SDS011;14738;42.668;23.250;2023-11-21T08:15:13;49.17;;;34.20;;
5297;SDS011;14738;42.668;23.250;2023-11-21T08:17:39;48.30;;;33.30;;
5297;SDS011;14738;42.668;23.250;2023-11-21T08:20:05;44.40;;;32.47;;
5297;SDS011;14738;42.668;23.250;2023-11-21T08:22:31;47.67;;;32.40;;
5297;SDS011;14738;42.668;23.250;2023-11-21T08:24:57;43.37;;;31.10;;
5297;SDS011;14738;42.668;23.250;2023-11-21T08:27:23;39.63;;;29.47;;
5297;SDS011;14738;42.668;23.250;2023-11-21T08:29:48;40.83;;;29.77;;
5297;SDS011;14738;42.668;23.250;2023-11-21T08:32:13;44.30;;;28.70;;
5297;SDS011;14738;42.668;23.250;2023-11-21T08:34:40;50.87;;;29.40;;
5297;SDS011;14738;42.668;23.250;2023-11-21T08:37:08;47.23;;;29.23;;
5297;SDS011;14738;42.668;23.250;2023-11-21T08:39:33;40.80;;;31.67;;
5297;SDS011;14738;42.668;23.250;2023-11-21T08:41:58;53.10;;;28.50;;
5297;SDS011;14738;42.668;23.250;2023-11-21T08:44:24;42.97;;;32.53;;
5297;SDS011;14738;42.668;23.250;2023-11-21T08:46:50;50.17;;;31.50;;
5297;SDS011;14738;42.668;23.250;2023-11-21T08:49:15;44.27;;;30.07;;
5297;SDS011;14738;42.668;23.250;2023-11-21T08:51:40;36.97;;;27.20;;
5297;SDS011;14738;42.668;23.250;2023-11-21T08:54:06;42.77;;;30.07;;
5297;SDS011;14738;42.668;23.250;2023-11-21T08:56:36;45.53;;;29.20;;
5297;SDS011;14738;42.668;23.250;2023-11-21T08:59:01;46.97;;;29.10;;
5297;SDS011;14738;42.668;23.250;2023-11-21T09:01:28;49.73;;;31.40;;
5297;SDS011;14738;42.668;23.250;2023-11-21T09:03:56;39.70;;;29.73;;
5297;SDS011;14738;42.668;23.250;2023-11-21T09:06:22;44.37;;;30.73;;
5297;SDS011;14738;42.668;23.250;2023-11-21T09:08:48;45.63;;;29.50;;
5297;SDS011;14738;42.668;23.250;2023-11-21T09:11:13;46.03;;;28.40;;
5297;SDS011;14738;42.668;23.250;2023-11-21T09:13:39;43.63;;;28.50;;
5297;SDS011;14738;42.668;23.250;2023-11-21T09:16:04;37.33;;;29.33;;
5297;SDS011;14738;42.668;23.250;2023-11-21T09:18:30;40.57;;;27.67;;
5297;SDS011;14738;42.668;23.250;2023-11-21T09:20:57;38.03;;;26.53;;
5297;SDS011;14738;42.668;23.250;2023-11-21T09:23:23;39.53;;;27.30;;
5297;SDS011;14738;42.668;23.250;2023-11-21T09:25:49;42.20;;;26.60;;
5297;SDS011;14738;42.668;23.250;2023-11-21T09:28:15;38.07;;;25.40;;
5297;SDS011;14738;42.668;23.250;2023-11-21T09:30:42;35.83;;;25.40;;
5297;SDS011;14738;42.668;23.250;2023-11-21T09:33:08;35.10;;;25.43;;
5297;SDS011;14738;42.668;23.250;2023-11-21T09:35:35;30.60;;;21.90;;
5297;SDS011;14738;42.668;23.250;2023-11-21T09:38:03;27.37;;;21.27;;
5297;SDS011;14738;42.668;23.250;2023-11-21T09:40:30;32.20;;;23.60;;
5297;SDS011;14738;42.668;23.250;2023-11-21T09:42:57;34.50;;;23.80;;
5297;SDS011;14738;42.668;23.250;2023-11-21T09:45:27;38.40;;;24.80;;
5297;SDS011;14738;42.668;23.250;2023-11-21T09:47:54;32.47;;;22.50;;
5297;SDS011;14738;42.668;23.250;2023-11-21T09:50:20;31.07;;;20.73;;
5297;SDS011;14738;42.668;23.250;2023-11-21T09:55:35;28.10;;;20.43;;
5297;SDS011;14738;42.668;23.250;2023-11-21T09:58:05;31.87;;;21.27;;
5297;SDS011;14738;42.668;23.250;2023-11-21T10:00:36;38.40;;;22.03;;
5297;SDS011;14738;42.668;23.250;2023-11-21T10:03:05;25.83;;;18.50;;
5297;SDS011;14738;42.668;23.250;2023-11-21T10:05:30;22.40;;;18.60;;
5297;SDS011;14738;42.668;23.250;2023-11-21T10:07:59;22.47;;;17.47;;
5297;SDS011;14738;42.668;23.250;2023-11-21T10:10:25;18.00;;;15.30;;
5297;SDS011;14738;42.668;23.250;2023-11-21T10:12:54;17.13;;;13.97;;
5297;SDS011;14738;42.668;23.250;2023-11-21T10:15:21;22.50;;;16.20;;
5297;SDS011;14738;42.668;23.250;2023-11-21T10:17:48;18.23;;;12.20;;
5297;SDS011;14738;42.668;23.250;2023-11-21T10:20:14;16.03;;;11.97;;
5297;SDS011;14738;42.668;23.250;2023-11-21T10:22:40;16.47;;;13.47;;
5297;SDS011;14738;42.668;23.250;2023-11-21T10:25:09;17.83;;;13.30;;
5297;SDS011;14738;42.668;23.250;2023-11-21T10:27:36;21.87;;;12.97;;
5297;SDS011;14738;42.668;23.250;2023-11-21T10:30:04;19.80;;;15.23;;
5297;SDS011;14738;42.668;23.250;2023-11-21T10:32:30;25.20;;;15.60;;
5297;SDS011;14738;42.668;23.250;2023-11-21T10:34:59;21.33;;;18.10;;
5297;SDS011;14738;42.668;23.250;2023-11-21T10:37:34;26.07;;;17.50;;
5297;SDS011;14738;42.668;23.250;2023-11-21T10:40:00;26.70;;;18.17;;
5297;SDS011;14738;42.668;23.250;2023-11-21T10:42:25;23.27;;;17.40;;
5297;SDS011;14738;42.668;23.250;2023-11-21T10:44:52;24.40;;;16.60;;
5297;SDS011;14738;42.668;23.250;2023-11-21T10:47:18;26.50;;;18.33;;
5297;SDS011;14738;42.668;23.250;2023-11-21T10:49:44;21.53;;;15.93;;
5297;SDS011;14738;42.668;23.250;2023-11-21T10:52:13;22.97;;;16.60;;
5297;SDS011;14738;42.668;23.250;2023-11-21T10:54:42;27.43;;;18.57;;
5297;SDS011;14738;42.668;23.250;2023-11-21T10:57:08;32.00;;;23.33;;
5297;SDS011;14738;42.668;23.250;2023-11-21T10:59:35;34.90;;;22.60;;
5297;SDS011;14738;42.668;23.250;2023-11-21T11:02:01;26.90;;;20.23;;
5297;SDS011;14738;42.668;23.250;2023-11-21T11:04:32;28.47;;;21.17;;
5297;SDS011;14738;42.668;23.250;2023-11-21T11:07:00;26.60;;;19.17;;
5297;SDS011;14738;42.668;23.250;2023-11-21T11:09:28;34.57;;;21.20;;
5297;SDS011;14738;42.668;23.250;2023-11-21T11:11:58;28.90;;;19.83;;
5297;SDS011;14738;42.668;23.250;2023-11-21T11:14:24;27.03;;;19.27;;
5297;SDS011;14738;42.668;23.250;2023-11-21T11:16:53;23.97;;;19.77;;
5297;SDS011;14738;42.668;23.250;2023-11-21T11:19:19;27.60;;;18.87;;
5297;SDS011;14738;42.668;23.250;2023-11-21T11:22:00;26.33;;;19.90;;
5297;SDS011;14738;42.668;23.250;2023-11-21T11:35:10;26.60;;;17.63;;
5297;SDS011;14738;42.668;23.250;2023-11-21T11:37:58;22.40;;;18.03;;
5297;SDS011;14738;42.668;23.250;2023-11-21T11:40:25;25.43;;;19.30;;
5297;SDS011;14738;42.668;23.250;2023-11-21T11:43:05;25.50;;;17.70;;
5297;SDS011;14738;42.668;23.250;2023-11-21T11:45:32;24.47;;;18.07;;
5297;SDS011;14738;42.668;23.250;2023-11-21T11:48:00;24.60;;;18.20;;
5297;SDS011;14738;42.668;23.250;2023-11-21T11:50:27;23.67;;;16.30;;
5297;SDS011;14738;42.668;23.250;2023-11-21T11:52:53;27.93;;;22.07;;
5297;SDS011;14738;42.668;23.250;2023-11-21T11:55:21;32.30;;;21.83;;
5297;SDS011;14738;42.668;23.250;2023-11-21T11:57:57;33.67;;;23.47;;
5297;SDS011;14738;42.668;23.250;2023-11-21T12:02:54;38.00;;;25.87;;
5297;SDS011;14738;42.668;23.250;2023-11-21T12:05:25;35.57;;;27.17;;
5297;SDS011;14738;42.668;23.250;2023-11-21T12:07:57;43.70;;;29.77;;
5297;SDS011;14738;42.668;23.250;2023-11-21T12:10:33;34.23;;;25.90;;
5297;SDS011;14738;42.668;23.250;2023-11-21T12:13:02;30.10;;;22.07;;
5297;SDS011;14738;42.668;23.250;2023-11-21T12:15:32;31.37;;;23.37;;
5297;SDS011;14738;42.668;23.250;2023-11-21T12:17:58;30.50;;;22.47;;
5297;SDS011;14738;42.668;23.250;2023-11-21T12:20:24;30.60;;;22.93;;
5297;SDS011;14738;42.668;23.250;2023-11-21T12:22:57;31.90;;;24.33;;
5297;SDS011;14738;42.668;23.250;2023-11-21T12:25:29;38.73;;;26.90;;
5297;SDS011;14738;42.668;23.250;2023-11-21T12:27:59;36.87;;;26.20;;
5297;SDS011;14738;42.668;23.250;2023-11-21T12:30:26;35.10;;;27.40;;
5297;SDS011;14738;42.668;23.250;2023-11-21T12:32:58;40.87;;;27.17;;
5297;SDS011;14738;42.668;23.250;2023-11-21T12:35:26;32.47;;;25.20;;
5297;SDS011;14738;42.668;23.250;2023-11-21T12:37:53;27.67;;;22.80;;
5297;SDS011;14738;42.668;23.250;2023-11-21T12:40:20;29.40;;;20.80;;
5297;SDS011;14738;42.668;23.250;2023-11-21T12:42:48;26.77;;;21.13;;
5297;SDS011;14738;42.668;23.250;2023-11-21T12:45:19;25.40;;;20.50;;
5297;SDS011;14738;42.668;23.250;2023-11-21T12:47:49;26.60;;;20.27;;
5297;SDS011;14738;42.668;23.250;2023-11-21T12:50:20;27.40;;;19.70;;
5297;SDS011;14738;42.668;23.250;2023-11-21T12:52:49;22.30;;;18.70;;
5297;SDS011;14738;42.668;23.250;2023-11-21T12:55:20;22.70;;;17.97;;
5297;SDS011;14738;42.668;23.250;2023-11-21T12:57:50;21.90;;;17.10;;
5297;SDS011;14738;42.668;23.250;2023-11-21T13:00:19;26.80;;;17.70;;
5297;SDS011;14738;42.668;23.250;2023-11-21T13:02:55;24.37;;;17.33;;
5297;SDS011;14738;42.668;23.250;2023-11-21T13:07:51;23.10;;;18.80;;
5297;SDS011;14738;42.668;23.250;2023-11-21T13:10:19;22.20;;;17.93;;
5297;SDS011;14738;42.668;23.250;2023-11-21T13:12:50;26.90;;;17.20;;
5297;SDS011;14738;42.668;23.250;2023-11-21T13:15:17;23.87;;;17.33;;
5297;SDS011;14738;42.668;23.250;2023-11-21T13:17:43;24.23;;;17.10;;
5297;SDS011;14738;42.668;23.250;2023-11-21T13:20:10;25.87;;;19.30;;
5297;SDS011;14738;42.668;23.250;2023-11-21T13:22:44;25.37;;;18.77;;
5297;SDS011;14738;42.668;23.250;2023-11-21T13:25:11;19.40;;;16.83;;
5297;SDS011;14738;42.668;23.250;2023-11-21T13:27:36;24.20;;;18.20;;
5297;SDS011;14738;42.668;23.250;2023-11-21T13:30:02;25.70;;;19.00;;
5297;SDS011;14738;42.668;23.250;2023-11-21T13:32:28;24.10;;;18.50;;
5297;SDS011;14738;42.668;23.250;2023-11-21T13:34:54;25.70;;;19.67;;
5297;SDS011;14738;42.668;23.250;2023-11-21T13:37:20;30.33;;;20.80;;
5297;SDS011;14738;42.668;23.250;2023-11-21T13:39:45;25.70;;;20.00;;
5297;SDS011;14738;42.668;23.250;2023-11-21T13:42:15;30.70;;;20.80;;
5297;SDS011;14738;42.668;23.250;2023-11-21T13:44:41;28.97;;;22.80;;
5297;SDS011;14738;42.668;23.250;2023-11-21T13:47:11;38.97;;;23.83;;
5297;SDS011;14738;42.668;23.250;2023-11-21T13:49:37;33.90;;;25.07;;
5297;SDS011;14738;42.668;23.250;2023-11-21T13:52:05;34.43;;;24.77;;
5297;SDS011;14738;42.668;23.250;2023-11-21T13:54:32;30.67;;;23.67;;
5297;SDS011;14738;42.668;23.250;2023-11-21T13:56:58;38.30;;;25.73;;
5297;SDS011;14738;42.668;23.250;2023-11-21T13:59:25;37.47;;;25.67;;
5297;SDS011;14738;42.668;23.250;2023-11-21T14:01:53;39.77;;;25.87;;
5297;SDS011;14738;42.668;23.250;2023-11-21T14:04:24;34.23;;;24.80;;
5297;SDS011;14738;42.668;23.250;2023-11-21T14:07:09;36.50;;;27.00;;
5297;SDS011;14738;42.668;23.250;2023-11-21T14:09:53;39.20;;;27.77;;
5297;SDS011;14738;42.668;23.250;2023-11-21T14:12:19;39.47;;;28.77;;
5297;SDS011;14738;42.668;23.250;2023-11-21T14:14:44;47.03;;;29.80;;
5297;SDS011;14738;42.668;23.250;2023-11-21T14:17:10;43.03;;;27.37;;
5297;SDS011;14738;42.668;23.250;2023-11-21T14:19:36;44.47;;;28.00;;
5297;SDS011;14738;42.668;23.250;2023-11-21T14:22:05;42.67;;;28.83;;
5297;SDS011;14738;42.668;23.250;2023-11-21T14:24:32;39.07;;;27.83;;
5297;SDS011;14738;42.668;23.250;2023-11-21T14:26:58;44.40;;;30.50;;
5297;SDS011;14738;42.668;23.250;2023-11-21T14:29:23;53.10;;;30.47;;
5297;SDS011;14738;42.668;23.250;2023-11-21T14:31:48;44.50;;;31.77;;
5297;SDS011;14738;42.668;23.250;2023-11-21T14:34:16;48.17;;;30.77;;
5297;SDS011;14738;42.668;23.250;2023-11-21T14:36:42;45.13;;;31.57;;
5297;SDS011;14738;42.668;23.250;2023-11-21T14:39:09;52.23;;;35.73;;
5297;SDS011;14738;42.668;23.250;2023-11-21T14:41:47;54.00;;;37.37;;
5297;SDS011;14738;42.668;23.250;2023-11-21T14:44:13;51.03;;;36.60;;